Marshall, WI (53559)

2:14 PM CDT on October 01, 2016 (GMT -0500)
Maple Heights | | Change Station

Elev 935 ft 43.18 °N, 89.03 °W | Updated 4 minutes ago

Light Rain
Light Rain Mist
60.0 °F
Feels Like 60.0 °F
N
0.4
Wind Variable Wind from NNW
Gusts 2.2 mph

Today
High -- | Low -- °F
--% Chance of Precip.
Yesterday
High -- | Low -- °F
Precip. -- in
Pressure 30.03 in
Visibility 2.5 miles
Clouds Mostly Cloudy 1000 ft
Mostly Cloudy 1600 ft
Overcast 2800 ft
Dew Point 59 °F
Humidity 96%
Rainfall 0.09 in
Snow Depth Not available.
6:54 AM 6:36 PM
New Moon, 1% visible
SPECI KMSN 011905Z 02012KT 2 1/2SM -RA BR BKN010 BKN016 OVC028 16/14 A3003 RMK AO2 RAB03 P0000 T01560139
Pressure 30.03 in
Visibility 2.5 miles
Clouds Mostly Cloudy 1000 ft
Mostly Cloudy 1600 ft
Overcast 2800 ft
Dew Point 59 °F
Humidity 96%
Rainfall 0.09 in
Snow Depth Not available.
6:54 AM 6:36 PM
New Moon, 1% visible
SPECI KMSN 011905Z 02012KT 2 1/2SM -RA BR BKN010 BKN016 OVC028 16/14 A3003 RMK AO2 RAB03 P0000 T01560139

10-Day Weather Forecast

Almanac

Astronomy

Oct. 01, 2016 Rise Set
Actual Time
Civil Twilight
Nautical Twilight
Astronomical Twilight
Moon
Length of Visible Light
Length of Day
Tomorrow will be .
, % of the Moon is Illuminated

Today's Extremes

State Highs State Lows

Community

WunderPhotos

Upload Photos

1,942,999 photos uploaded!

WunderBlog® & News

Nearby

Air Quality

  Air Quality AQ Index Pollutant
Not available.

Snow Depth

Station Depth Elevation

Earthquake Activity

City Distance Mag. Time & Date
Minimum magnitude displayed is 2.5.

Coastal Water Temperatures

Place Temperature

Stations

Nearby Weather Stations

Station Location Temp. Windchill Dew Point Humidity Wind Precip. Elev Updated Type
                   

Watches & Warnings

There are currently no watches in effect.